METAR

SADR31 MDSD 171100Z
METAR

METAR MDPP 171100Z 00000KT 9999 SCT017 SCT300 20/20 Q1015=
METAR MDST 171100Z 08004KT 0400 FG OVC005 22/22 Q1016=
METAR MDSD 171100Z 00000KT 9999 FEW016 22/21 Q1015=
METAR MDLR 171100Z 00000KT 9999 SCT016 22/22 Q1014=
METAR MDCY 171100Z 00000KT 5000 BR FEW014 20/20 Q1014=